Time;durP1;ratioP1;P1;durP2;ratioP2;P2;SDS_P1;SDS_P2;PMS_P1;PMS_P2;Temp;Humidity;BMP_temperature;BMP_pressure;BME280_temperature;BME280_humidity;BME280_pressure;Samples;Min_cycle;Max_cycle;Signal;HPM_P1;HPM_P2
2023/09/19 00:00:35;;;;;;;4.47;1.00;;;;;;;;;;6214880;23;20054;-88
2023/09/19 00:03:01;;;;;;;4.32;1.20;;;;;;;;;;6214956;23;20016;-88
2023/09/19 00:05:28;;;;;;;2.80;0.90;;;;;;;;;;6215148;23;20012;-87
2023/09/19 00:07:58;;;;;;;1.38;0.82;;;;;;;;;;6215413;23;20008;-87
2023/09/19 00:10:24;;;;;;;4.97;1.05;;;;;;;;;;6214606;23;20031;-87
2023/09/19 00:12:58;;;;;;;1.77;0.95;;;;;;;;;;6215079;23;20016;-88
2023/09/19 00:15:24;;;;;;;6.47;1.40;;;;;;;;;;6215349;23;20018;-89
2023/09/19 00:17:54;;;;;;;1.92;0.50;;;;;;;;;;6215297;23;20022;-88
2023/09/19 00:20:22;;;;;;;2.45;0.70;;;;;;;;;;6216437;23;20448;-89
2023/09/19 00:22:49;;;;;;;2.28;0.90;;;;;;;;;;6216450;23;20016;-87
2023/09/19 00:25:15;;;;;;;1.63;0.65;;;;;;;;;;6217142;23;20031;-87
2023/09/19 00:27:42;;;;;;;3.30;0.98;;;;;;;;;;6224541;23;20062;-88
2023/09/19 00:30:24;;;;;;;3.28;0.90;;;;;;;;;;6221760;23;20171;-89
2023/09/19 00:32:54;;;;;;;2.63;0.80;;;;;;;;;;6219555;23;20016;-88
2023/09/19 00:35:20;;;;;;;3.88;0.80;;;;;;;;;;6221426;23;20039;-89
2023/09/19 00:37:46;;;;;;;0.98;0.65;;;;;;;;;;6221911;23;20012;-89
2023/09/19 00:40:12;;;;;;;3.35;1.00;;;;;;;;;;6220750;23;20015;-88
2023/09/19 00:43:02;;;;;;;3.55;0.90;;;;;;;;;;6215347;23;20008;-88
2023/09/19 00:45:31;;;;;;;8.38;0.90;;;;;;;;;;6195906;23;20394;-89
2023/09/19 00:47:57;;;;;;;3.38;0.75;;;;;;;;;;6241723;23;20401;-88
2023/09/19 00:50:25;;;;;;;5.68;0.93;;;;;;;;;;6214319;23;20095;-89
2023/09/19 00:52:55;;;;;;;5.07;0.90;;;;;;;;;;6215116;23;20062;-89
2023/09/19 00:55:22;;;;;;;3.83;0.60;;;;;;;;;;6215090;23;20020;-89
2023/09/19 00:57:51;;;;;;;2.25;0.73;;;;;;;;;;6214663;23;20492;-89
2023/09/19 01:00:19;;;;;;;3.22;0.93;;;;;;;;;;6216731;23;20048;-87
2023/09/19 01:02:46;;;;;;;4.80;1.10;;;;;;;;;;6190963;23;20099;-89
2023/09/19 01:05:12;;;;;;;4.88;0.70;;;;;;;;;;6214372;23;20095;-90
2023/09/19 01:07:41;;;;;;;3.08;0.90;;;;;;;;;;6213578;23;20020;-90
2023/09/19 01:10:12;;;;;;;2.55;0.75;;;;;;;;;;6213618;23;20345;-90
2023/09/19 01:12:56;;;;;;;4.22;0.90;;;;;;;;;;6189126;23;20012;-90
2023/09/19 01:15:25;;;;;;;3.20;1.23;;;;;;;;;;6213926;23;20009;-92
2023/09/19 01:17:51;;;;;;;2.95;0.80;;;;;;;;;;6212912;23;20020;-89
2023/09/19 01:20:37;;;;;;;2.72;0.88;;;;;;;;;;6213783;23;20004;-90
2023/09/19 01:23:09;;;;;;;2.20;0.75;;;;;;;;;;6213808;23;20023;-90
2023/09/19 01:25:35;;;;;;;4.60;0.80;;;;;;;;;;6189304;23;20020;-90
2023/09/19 01:28:07;;;;;;;4.20;0.85;;;;;;;;;;6213736;23;20087;-91
2023/09/19 01:30:36;;;;;;;3.97;0.95;;;;;;;;;;6215409;23;20334;-89
2023/09/19 01:33:03;;;;;;;3.33;1.05;;;;;;;;;;6213819;23;20050;-89
2023/09/19 01:35:30;;;;;;;3.40;0.95;;;;;;;;;;6214114;23;20035;-90
2023/09/19 01:37:56;;;;;;;3.63;0.82;;;;;;;;;;6212905;23;20016;-90
2023/09/19 01:40:23;;;;;;;4.93;1.02;;;;;;;;;;6188501;23;20019;-91
2023/09/19 01:42:59;;;;;;;5.32;1.08;;;;;;;;;;6213623;23;20095;-90
2023/09/19 01:45:44;;;;;;;3.45;0.82;;;;;;;;;;6214478;23;20018;-90
2023/09/19 01:48:28;;;;;;;2.47;0.88;;;;;;;;;;6188900;23;20012;-90
2023/09/19 01:51:02;;;;;;;3.90;0.95;;;;;;;;;;6215599;23;20015;-91
2023/09/19 01:53:34;;;;;;;5.38;1.10;;;;;;;;;;6189503;23;20020;-91
2023/09/19 01:56:02;;;;;;;2.75;0.85;;;;;;;;;;6214314;23;20070;-90
2023/09/19 01:58:32;;;;;;;3.03;1.20;;;;;;;;;;6190619;23;20051;-89
2023/09/19 02:00:58;;;;;;;;;;;;;;;;;;6190868;23;20012;-91
2023/09/19 02:03:24;;;;;;;1.83;0.93;;;;;;;;;;6214965;23;19912;-90
2023/09/19 02:05:53;;;;;;;3.90;0.98;;;;;;;;;;6216076;23;20445;-90
2023/09/19 02:08:19;;;;;;;1.42;0.80;;;;;;;;;;6215348;23;20448;-91
2023/09/19 02:10:48;;;;;;;2.53;0.90;;;;;;;;;;6215046;23;20012;-90
2023/09/19 02:13:19;;;;;;;4.38;1.10;;;;;;;;;;6214901;23;20051;-90
2023/09/19 02:15:45;;;;;;;3.00;0.95;;;;;;;;;;6216345;23;20027;-90
2023/09/19 02:18:11;;;;;;;3.90;0.93;;;;;;;;;;6214553;23;20087;-89
2023/09/19 02:20:38;;;;;;;3.15;1.10;;;;;;;;;;6216349;23;20016;-91
2023/09/19 02:23:04;;;;;;;2.83;1.17;;;;;;;;;;6215213;23;20016;-90
2023/09/19 02:25:31;;;;;;;4.35;1.60;;;;;;;;;;6214551;23;20012;-90
2023/09/19 02:27:58;;;;;;;1.95;1.20;;;;;;;;;;6214953;23;20024;-89
2023/09/19 02:30:27;;;;;;;1.35;0.68;;;;;;;;;;6215763;23;20319;-90
2023/09/19 02:32:54;;;;;;;7.47;1.20;;;;;;;;;;6215198;23;20008;-90
2023/09/19 02:35:20;;;;;;;4.63;1.48;;;;;;;;;;6215003;23;20012;-89
2023/09/19 02:37:46;;;;;;;2.08;1.02;;;;;;;;;;6190739;23;20014;-91
2023/09/19 02:40:18;;;;;;;2.60;0.98;;;;;;;;;;6214280;23;20012;-91
2023/09/19 02:42:46;;;;;;;3.53;1.00;;;;;;;;;;6189416;23;20076;-90
2023/09/19 02:45:13;;;;;;;2.95;1.05;;;;;;;;;;6213342;23;20384;-91
2023/09/19 02:47:40;;;;;;;4.70;1.85;;;;;;;;;;6190873;23;20016;-90
2023/09/19 02:50:06;;;;;;;2.25;1.02;;;;;;;;;;6214149;23;20020;-89
2023/09/19 02:52:32;;;;;;;3.90;1.10;;;;;;;;;;6189761;23;20020;-90
2023/09/19 02:55:00;;;;;;;3.50;1.08;;;;;;;;;;6214917;23;20019;-90
2023/09/19 02:57:27;;;;;;;2.92;1.20;;;;;;;;;;6214385;23;20016;-92
2023/09/19 02:59:53;;;;;;;3.33;1.15;;;;;;;;;;6214121;23;20355;-90
2023/09/19 03:02:19;;;;;;;2.50;1.08;;;;;;;;;;6214766;23;20066;-92
2023/09/19 03:04:46;;;;;;;5.05;1.13;;;;;;;;;;6215650;23;20012;-91
2023/09/19 03:07:12;;;;;;;3.05;1.30;;;;;;;;;;6213664;23;20012;-90
2023/09/19 03:09:38;;;;;;;4.88;1.25;;;;;;;;;;6215658;23;20026;-90
2023/09/19 03:12:06;;;;;;;3.70;1.42;;;;;;;;;;6215290;23;20069;-92
2023/09/19 03:14:35;;;;;;;3.55;1.02;;;;;;;;;;6189580;23;20074;-91
2023/09/19 03:17:04;;;;;;;3.60;1.10;;;;;;;;;;6213986;23;20020;-90
2023/09/19 03:19:33;;;;;;;3.10;1.20;;;;;;;;;;6212275;23;20081;-92
2023/09/19 03:21:59;;;;;;;3.72;1.20;;;;;;;;;;6213362;23;20016;-91
2023/09/19 03:24:25;;;;;;;2.72;0.82;;;;;;;;;;6215087;23;20197;-92
2023/09/19 03:26:52;;;;;;;3.22;1.63;;;;;;;;;;6215427;23;20376;-92
2023/09/19 03:29:18;;;;;;;3.72;1.35;;;;;;;;;;6215111;23;20092;-90
2023/09/19 03:31:45;;;;;;;3.28;0.90;;;;;;;;;;6215577;23;20008;-91
2023/09/19 03:34:11;;;;;;;3.55;0.88;;;;;;;;;;6214037;23;20337;-91
2023/09/19 03:36:37;;;;;;;2.05;1.38;;;;;;;;;;6189797;23;20050;-91
2023/09/19 03:39:06;;;;;;;2.65;1.13;;;;;;;;;;6215446;23;20357;-93
2023/09/19 03:41:33;;;;;;;3.08;1.25;;;;;;;;;;6190247;23;20366;-94
2023/09/19 03:43:59;;;;;;;4.70;1.33;;;;;;;;;;6189425;23;20015;-90
2023/09/19 03:46:25;;;;;;;2.92;1.33;;;;;;;;;;6212190;23;20066;-93
2023/09/19 03:48:51;;;;;;;2.42;0.73;;;;;;;;;;6190596;23;20450;-93
2023/09/19 03:51:17;;;;;;;1.80;0.90;;;;;;;;;;6189910;23;20016;-92
2023/09/19 03:53:43;;;;;;;2.70;1.33;;;;;;;;;;6190744;23;20070;-92
2023/09/19 03:56:10;;;;;;;2.58;0.98;;;;;;;;;;6214549;23;20016;-93
2023/09/19 03:58:39;;;;;;;4.97;1.05;;;;;;;;;;6191007;23;20009;-93
2023/09/19 04:01:06;;;;;;;2.67;0.82;;;;;;;;;;6215755;23;20338;-94
2023/09/19 04:03:46;;;;;;;2.95;1.30;;;;;;;;;;6190257;23;20012;-95
2023/09/19 04:06:13;;;;;;;2.95;1.15;;;;;;;;;;6189821;23;20016;-93
2023/09/19 04:08:39;;;;;;;3.58;1.50;;;;;;;;;;6191377;23;20016;-93
2023/09/19 04:11:05;;;;;;;3.33;1.80;;;;;;;;;;6216326;23;20338;-95
2023/09/19 04:13:31;;;;;;;4.95;1.40;;;;;;;;;;6215947;23;20054;-94
2023/09/19 04:15:57;;;;;;;5.18;1.55;;;;;;;;;;6192273;23;20442;-93
2023/09/19 04:18:23;;;;;;;3.28;1.52;;;;;;;;;;6192594;23;20012;-95
2023/09/19 04:20:50;;;;;;;2.35;1.05;;;;;;;;;;6199275;23;20389;-96
2023/09/19 04:23:16;;;;;;;2.80;1.38;;;;;;;;;;6199853;23;20095;-95
2023/09/19 04:25:43;;;;;;;2.22;1.13;;;;;;;;;;6194931;23;20019;-95
2023/09/19 04:28:12;;;;;;;3.90;1.13;;;;;;;;;;6196115;23;20126;-95
2023/09/19 04:30:40;;;;;;;2.03;1.35;;;;;;;;;;6198532;23;20016;-95
2023/09/19 04:33:06;;;;;;;4.28;1.08;;;;;;;;;;6199082;23;20012;-95
2023/09/19 04:35:32;;;;;;;3.13;1.10;;;;;;;;;;6197219;23;20046;-95
2023/09/19 04:37:59;;;;;;;2.67;1.23;;;;;;;;;;6199907;23;20008;-96
2023/09/19 04:40:26;;;;;;;2.83;1.25;;;;;;;;;;6205872;23;20012;-95
2023/09/19 04:42:59;;;;;;;4.22;1.45;;;;;;;;;;6206631;23;20066;-96
2023/09/19 04:45:29;;;;;;;6.50;1.95;;;;;;;;;;6208957;23;20016;-94
2023/09/19 04:48:02;;;;;;;2.22;1.20;;;;;;;;;;6230496;23;20044;-95
2023/09/19 04:50:32;;;;;;;4.28;1.20;;;;;;;;;;6210944;23;20030;-95
2023/09/19 04:53:05;;;;;;;;;;;;;;;;;;6235879;23;20067;-96
2023/09/19 04:55:46;;;;;;;3.85;1.90;;;;;;;;;;6236536;23;19916;-95
2023/09/19 04:58:12;;;;;;;4.43;1.10;;;;;;;;;;6263426;23;20012;-96
2023/09/19 05:00:39;;;;;;;4.07;1.30;;;;;;;;;;6263636;23;20015;-95
2023/09/19 05:03:05;;;;;;;3.60;1.67;;;;;;;;;;6238781;22;20056;-95
2023/09/19 05:05:32;;;;;;;7.22;1.58;;;;;;;;;;6231301;23;20038;-94
2023/09/19 05:07:59;;;;;;;5.40;1.40;;;;;;;;;;6234068;23;20023;-96
2023/09/19 05:10:25;;;;;;;2.30;0.80;;;;;;;;;;6260989;23;20342;-95
2023/09/19 05:12:53;;;;;;;4.00;1.05;;;;;;;;;;6260355;23;20013;-95
2023/09/19 05:15:19;;;;;;;5.47;1.05;;;;;;;;;;6233071;23;20020;-96
2023/09/19 05:17:50;;;;;;;5.30;1.10;;;;;;;;;;6238520;23;20396;-96
2023/09/19 05:20:16;;;;;;;5.82;1.00;;;;;;;;;;6264807;23;20016;-95
2023/09/19 05:22:43;;;;;;;2.45;1.27;;;;;;;;;;6259728;23;20016;-95
2023/09/19 05:25:09;;;;;;;6.03;1.23;;;;;;;;;;6253831;23;20731;-95
2023/09/19 05:27:35;;;;;;;7.75;1.30;;;;;;;;;;6222935;23;20069;-92
2023/09/19 05:30:01;;;;;;;5.72;1.85;;;;;;;;;;6246894;23;20016;-91
2023/09/19 05:32:27;;;;;;;3.45;1.17;;;;;;;;;;6224717;23;20530;-92
2023/09/19 05:34:56;;;;;;;4.45;1.38;;;;;;;;;;6226266;23;20016;-92
2023/09/19 05:37:23;;;;;;;4.70;1.05;;;;;;;;;;6221772;23;20016;-89
2023/09/19 05:39:49;;;;;;;6.40;1.45;;;;;;;;;;6217350;23;20008;-91
2023/09/19 05:42:15;;;;;;;4.53;1.48;;;;;;;;;;6245684;23;20040;-92
2023/09/19 05:44:41;;;;;;;4.88;1.30;;;;;;;;;;6226520;23;20395;-95
2023/09/19 05:47:08;;;;;;;5.45;1.35;;;;;;;;;;6222492;23;20019;-91
2023/09/19 05:49:38;;;;;;;4.25;1.20;;;;;;;;;;6224234;23;20020;-93
2023/09/19 05:52:04;;;;;;;5.55;1.17;;;;;;;;;;6218457;23;20075;-94
2023/09/19 05:54:30;;;;;;;3.95;1.02;;;;;;;;;;6221074;23;20429;-92
2023/09/19 05:56:57;;;;;;;3.28;1.02;;;;;;;;;;6218863;23;20020;-94
2023/09/19 05:59:23;;;;;;;4.43;1.05;;;;;;;;;;6221395;23;20050;-94
2023/09/19 07:07:08;;;;;;;4.22;1.17;;;;;;;;;;6243462;22;20074;-89
2023/09/19 07:09:35;;;;;;;5.00;1.17;;;;;;;;;;6215819;23;20023;-93
2023/09/19 07:12:01;;;;;;;4.20;1.52;;;;;;;;;;6216029;23;20020;-93
2023/09/19 07:14:28;;;;;;;2.75;0.82;;;;;;;;;;6217023;23;20338;-93
2023/09/19 07:16:54;;;;;;;4.85;1.38;;;;;;;;;;6246957;23;20445;-94
2023/09/19 07:19:21;;;;;;;4.35;1.30;;;;;;;;;;6221625;23;20468;-94
2023/09/19 07:21:50;;;;;;;4.82;1.20;;;;;;;;;;6246818;23;20323;-92
2023/09/19 07:24:16;;;;;;;7.50;1.45;;;;;;;;;;6245649;23;20044;-92
2023/09/19 07:26:42;;;;;;;3.35;1.08;;;;;;;;;;6244432;23;20019;-93
2023/09/19 07:29:08;;;;;;;4.80;1.25;;;;;;;;;;6245140;23;20087;-93
2023/09/19 07:31:34;;;;;;;4.40;1.35;;;;;;;;;;6218329;23;20016;-93
2023/09/19 07:34:00;;;;;;;4.63;1.30;;;;;;;;;;6220446;23;20052;-93
2023/09/19 07:36:29;;;;;;;5.63;1.65;;;;;;;;;;6197148;23;20437;-94
2023/09/19 07:38:57;;;;;;;4.30;1.05;;;;;;;;;;6219237;23;20074;-94
2023/09/19 07:41:24;;;;;;;1.95;1.02;;;;;;;;;;6220441;23;20016;-93
2023/09/19 07:43:50;;;;;;;6.05;1.60;;;;;;;;;;6217590;23;20020;-90
2023/09/19 07:46:16;;;;;;;7.85;1.45;;;;;;;;;;6244508;23;20027;-92
2023/09/19 07:48:48;;;;;;;5.13;1.63;;;;;;;;;;6218344;23;20016;-92
2023/09/19 07:51:15;;;;;;;6.97;1.23;;;;;;;;;;6244506;23;20364;-94
2023/09/19 07:53:42;;;;;;;5.97;1.20;;;;;;;;;;6218461;23;20338;-90
2023/09/19 07:56:09;;;;;;;3.45;1.20;;;;;;;;;;6218645;23;20012;-91
2023/09/19 07:58:37;;;;;;;3.50;1.25;;;;;;;;;;6219168;23;20016;-94
2023/09/19 08:01:10;;;;;;;4.65;1.20;;;;;;;;;;6223680;23;20023;-92
2023/09/19 08:03:40;;;;;;;5.50;1.45;;;;;;;;;;6219036;23;20019;-93
2023/09/19 08:06:06;;;;;;;4.95;1.80;;;;;;;;;;6214323;23;20034;-85
2023/09/19 08:08:34;;;;;;;5.53;1.40;;;;;;;;;;6241287;23;20420;-84
2023/09/19 08:11:01;;;;;;;5.30;1.55;;;;;;;;;;6242293;23;20079;-87
2023/09/19 08:13:27;;;;;;;4.70;1.48;;;;;;;;;;6239294;23;20008;-85
2023/09/19 08:15:53;;;;;;;6.18;1.08;;;;;;;;;;6216084;23;20027;-93
2023/09/19 08:18:22;;;;;;;4.38;1.55;;;;;;;;;;6243772;23;20469;-91
2023/09/19 08:20:51;;;;;;;4.65;1.15;;;;;;;;;;6239710;23;20016;-87
2023/09/19 08:23:20;;;;;;;9.38;2.70;;;;;;;;;;6214482;23;20008;-93
2023/09/19 08:25:49;;;;;;;6.25;1.42;;;;;;;;;;6242188;23;20342;-93
2023/09/19 08:28:18;;;;;;;5.03;1.20;;;;;;;;;;6212861;23;20364;-93
2023/09/19 08:30:44;;;;;;;5.32;1.30;;;;;;;;;;6216639;23;20460;-92
2023/09/19 08:33:10;;;;;;;6.60;1.23;;;;;;;;;;6218530;23;20027;-96
2023/09/19 08:35:39;;;;;;;7.18;1.42;;;;;;;;;;6219757;23;20020;-93
2023/09/19 08:38:06;;;;;;;7.07;1.40;;;;;;;;;;6243143;23;20016;-93
2023/09/19 08:40:33;;;;;;;5.40;1.35;;;;;;;;;;6240850;23;20012;-94
2023/09/19 08:43:00;;;;;;;5.70;1.88;;;;;;;;;;6211886;23;20016;-87
2023/09/19 08:45:29;;;;;;;6.13;1.48;;;;;;;;;;6214637;23;20012;-92
2023/09/19 08:48:13;;;;;;;5.28;1.13;;;;;;;;;;6213619;23;20095;-92
2023/09/19 08:50:51;;;;;;;4.63;1.17;;;;;;;;;;6241558;23;20342;-89
2023/09/19 08:53:23;;;;;;;5.13;1.80;;;;;;;;;;6240975;23;20012;-89
2023/09/19 08:55:53;;;;;;;5.85;1.63;;;;;;;;;;6239342;23;20393;-90
2023/09/19 08:58:21;;;;;;;;;;;;;;;;;;6241189;23;20016;-92
2023/09/19 09:00:49;;;;;;;6.53;1.80;;;;;;;;;;6218518;23;19934;-95
2023/09/19 09:03:15;;;;;;;5.05;1.70;;;;;;;;;;6215063;23;20012;-93
2023/09/19 09:05:43;;;;;;;3.58;1.20;;;;;;;;;;6241558;23;20395;-90
2023/09/19 09:08:10;;;;;;;7.75;1.50;;;;;;;;;;6240654;23;20024;-91
2023/09/19 09:10:38;;;;;;;4.80;1.30;;;;;;;;;;6241243;23;20008;-91
2023/09/19 09:13:06;;;;;;;7.45;1.23;;;;;;;;;;6214181;23;20091;-94
2023/09/19 09:15:36;;;;;;;6.28;1.58;;;;;;;;;;6241228;23;20021;-91
2023/09/19 09:18:03;;;;;;;7.35;1.85;;;;;;;;;;6241012;23;20018;-90
2023/09/19 09:20:29;;;;;;;7.93;1.60;;;;;;;;;;6214743;23;20044;-93
2023/09/19 09:22:58;;;;;;;6.03;1.70;;;;;;;;;;6242207;23;20012;-91
2023/09/19 09:25:44;;;;;;;4.45;1.38;;;;;;;;;;6215036;23;20024;-90
2023/09/19 09:28:11;;;;;;;4.82;1.50;;;;;;;;;;6241203;23;20016;-93
2023/09/19 09:30:37;;;;;;;6.97;1.27;;;;;;;;;;6240690;23;20026;-88
2023/09/19 09:33:13;;;;;;;7.13;1.75;;;;;;;;;;6240586;23;20024;-88
2023/09/19 09:35:52;;;;;;;5.28;2.00;;;;;;;;;;6240766;23;20038;-90
2023/09/19 09:38:25;;;;;;;8.50;2.63;;;;;;;;;;6240672;23;20013;-89
2023/09/19 09:41:06;;;;;;;5.28;1.30;;;;;;;;;;6240543;23;20012;-89
2023/09/19 09:43:36;;;;;;;6.75;1.38;;;;;;;;;;6215533;23;20012;-91
2023/09/19 09:49:14;;;;;;;7.35;1.38;;;;;;;;;;6240432;23;20083;-89
2023/09/19 09:51:34;;;;;;;9.68;1.63;;;;;;;;;;6240642;23;20019;-90
2023/09/19 09:54:12;;;;;;;7.75;1.40;;;;;;;;;;6240333;23;20119;-89
2023/09/19 09:56:54;;;;;;;4.68;1.30;;;;;;;;;;6239416;23;20028;-92
2023/09/19 09:59:23;;;;;;;3.67;1.08;;;;;;;;;;6242548;23;20012;-89
2023/09/19 10:01:50;;;;;;;6.35;1.35;;;;;;;;;;6241345;23;20069;-92
2023/09/19 10:04:44;;;;;;;7.43;2.08;;;;;;;;;;6213842;23;20020;-88
2023/09/19 10:07:11;;;;;;;4.13;1.42;;;;;;;;;;6213109;23;20016;-92
2023/09/19 10:09:51;;;;;;;7.30;1.30;;;;;;;;;;6243877;23;20012;-90
2023/09/19 10:12:17;;;;;;;7.38;1.50;;;;;;;;;;6248562;23;20058;-86
2023/09/19 10:14:47;;;;;;;3.85;1.67;;;;;;;;;;6244368;23;20008;-92
2023/09/19 10:17:15;;;;;;;4.15;1.85;;;;;;;;;;6243239;23;20024;-89
2023/09/19 10:19:46;;;;;;;7.38;1.45;;;;;;;;;;6243820;23;20386;-89
2023/09/19 10:22:14;;;;;;;6.57;1.50;;;;;;;;;;6215146;23;20012;-90
2023/09/19 10:24:41;;;;;;;9.48;1.90;;;;;;;;;;6242429;23;20015;-90
2023/09/19 10:27:08;;;;;;;9.18;1.88;;;;;;;;;;6242602;23;20012;-90
2023/09/19 10:29:36;;;;;;;9.85;2.47;;;;;;;;;;6221509;23;20062;-89
2023/09/19 10:32:05;;;;;;;3.42;1.63;;;;;;;;;;6247449;23;20023;-93
2023/09/19 10:34:33;;;;;;;11.93;1.55;;;;;;;;;;6218516;23;20016;-92
2023/09/19 10:37:02;;;;;;;6.05;1.50;;;;;;;;;;6217560;23;20016;-93
2023/09/19 10:39:31;;;;;;;7.72;1.88;;;;;;;;;;6245066;23;20023;-89
2023/09/19 10:41:59;;;;;;;5.90;1.60;;;;;;;;;;6218062;23;20048;-91
2023/09/19 10:44:25;;;;;;;3.20;1.17;;;;;;;;;;6245705;23;20020;-91
2023/09/19 10:46:53;;;;;;;4.95;1.20;;;;;;;;;;6222023;23;20043;-87
2023/09/19 10:49:20;;;;;;;3.28;1.15;;;;;;;;;;6243119;23;20445;-89
2023/09/19 10:51:49;;;;;;;6.15;1.73;;;;;;;;;;6244154;23;20012;-90
2023/09/19 10:54:17;;;;;;;6.45;1.52;;;;;;;;;;6244125;23;20457;-87
2023/09/19 10:56:46;;;;;;;9.60;1.63;;;;;;;;;;6243674;23;20019;-85
2023/09/19 10:59:18;;;;;;;7.40;2.08;;;;;;;;;;6244234;23;20008;-96
2023/09/19 11:01:48;;;;;;;5.22;1.85;;;;;;;;;;6245795;23;20012;-94
2023/09/19 11:04:36;;;;;;;6.55;1.75;;;;;;;;;;6244335;23;20500;-93
2023/09/19 11:07:12;;;;;;;8.38;1.50;;;;;;;;;;6242852;23;20082;-94
2023/09/19 11:09:54;;;;;;;6.25;1.33;;;;;;;;;;6245478;23;20016;-95
2023/09/19 11:12:48;;;;;;;5.60;1.33;;;;;;;;;;6243871;23;20382;-89
2023/09/19 11:15:53;;;;;;;4.63;1.88;;;;;;;;;;6244188;23;20016;-90
2023/09/19 11:18:37;;;;;;;3.45;1.60;;;;;;;;;;6090490;23;20014;-90
2023/09/19 11:21:23;;;;;;;6.97;1.55;;;;;;;;;;6089208;23;20050;-93
2023/09/19 11:24:12;;;;;;;3.28;1.10;;;;;;;;;;6068686;23;20015;-92
2023/09/19 11:26:48;;;;;;;4.55;1.45;;;;;;;;;;6092066;23;20070;-87
2023/09/19 11:29:27;;;;;;;4.35;1.27;;;;;;;;;;6092143;23;20029;-91
2023/09/19 11:31:55;;;;;;;3.33;1.30;;;;;;;;;;6091074;23;20118;-89
2023/09/19 11:34:50;;;;;;;5.72;1.52;;;;;;;;;;6089896;23;20053;-88
2023/09/19 11:37:16;;;;;;;4.93;1.50;;;;;;;;;;6088997;23;20085;-90
2023/09/19 11:40:01;;;;;;;5.68;1.35;;;;;;;;;;6090759;23;20041;-88
2023/09/19 11:42:45;;;;;;;4.45;1.10;;;;;;;;;;6065951;23;20021;-92
2023/09/19 11:45:34;;;;;;;5.20;2.08;;;;;;;;;;6091747;23;20029;-92
2023/09/19 11:48:01;;;;;;;4.82;1.58;;;;;;;;;;6016893;23;20030;-95
2023/09/19 11:50:28;;;;;;;6.40;1.92;;;;;;;;;;6153318;23;20029;-92
2023/09/19 11:52:55;;;;;;;4.63;1.40;;;;;;;;;;6125647;23;20020;-90
2023/09/19 11:55:21;;;;;;;4.18;1.67;;;;;;;;;;6127272;23;20021;-90
2023/09/19 11:57:50;;;;;;;5.10;1.38;;;;;;;;;;6125957;23;20447;-93
2023/09/19 12:00:21;;;;;;;5.25;1.20;;;;;;;;;;6158480;23;20024;-94
2023/09/19 12:02:48;;;;;;;3.67;1.02;;;;;;;;;;6129474;23;20017;-94
2023/09/19 12:05:15;;;;;;;4.05;1.30;;;;;;;;;;6128440;23;20487;-93
2023/09/19 12:07:47;;;;;;;4.20;1.42;;;;;;;;;;6135166;23;20017;-95
2023/09/19 12:10:17;;;;;;;7.85;1.30;;;;;;;;;;6131826;23;20466;-92
2023/09/19 12:12:53;;;;;;;5.72;1.10;;;;;;;;;;6130184;23;20025;-90
2023/09/19 12:15:20;;;;;;;;;;;;;;;;;;6154978;23;20014;-95
2023/09/19 12:17:47;;;;;;;3.22;1.15;;;;;;;;;;6130442;23;20314;-95
2023/09/19 12:20:14;;;;;;;1.90;0.98;;;;;;;;;;6156389;23;20184;-93
2023/09/19 12:22:43;;;;;;;6.78;1.35;;;;;;;;;;6123168;23;20052;-91
2023/09/19 12:25:11;;;;;;;11.05;1.83;;;;;;;;;;6180947;23;20318;-95
2023/09/19 12:27:43;;;;;;;5.47;1.30;;;;;;;;;;6248007;23;20023;-93
2023/09/19 12:30:13;;;;;;;2.58;0.75;;;;;;;;;;6219509;23;20462;-90
2023/09/19 12:32:40;;;;;;;4.93;1.35;;;;;;;;;;6240120;23;20020;-93
2023/09/19 12:35:13;;;;;;;3.58;1.25;;;;;;;;;;6241558;23;20142;-91
2023/09/19 12:37:48;;;;;;;6.55;1.45;;;;;;;;;;6215642;23;20011;-91
2023/09/19 12:40:17;;;;;;;4.15;1.00;;;;;;;;;;6215184;23;20085;-90
2023/09/19 12:42:44;;;;;;;6.05;1.20;;;;;;;;;;6241687;23;20043;-91
2023/09/19 12:45:13;;;;;;;7.03;1.25;;;;;;;;;;6242103;23;20067;-94
2023/09/19 12:47:40;;;;;;;4.90;1.58;;;;;;;;;;6215988;23;20337;-92
2023/09/19 12:50:13;;;;;;;4.88;1.23;;;;;;;;;;6216216;23;20040;-89
2023/09/19 12:52:49;;;;;;;3.55;1.30;;;;;;;;;;6242758;23;20012;-91
2023/09/19 12:55:26;;;;;;;2.70;1.30;;;;;;;;;;6240959;23;20020;-93
2023/09/19 12:58:07;;;;;;;3.90;1.25;;;;;;;;;;6241779;23;20074;-92
2023/09/19 13:00:47;;;;;;;3.95;1.15;;;;;;;;;;6215082;23;20020;-90
2023/09/19 13:03:16;;;;;;;4.30;1.20;;;;;;;;;;6213394;23;20086;-94
2023/09/19 13:06:00;;;;;;;6.07;1.33;;;;;;;;;;6242197;23;20020;-93
2023/09/19 13:08:32;;;;;;;4.18;1.42;;;;;;;;;;6215010;23;20333;-91
2023/09/19 13:11:10;;;;;;;4.45;1.05;;;;;;;;;;6245635;23;20026;-95
2023/09/19 13:13:44;;;;;;;3.30;1.20;;;;;;;;;;6216131;23;20047;-89
2023/09/19 13:16:14;;;;;;;3.25;1.13;;;;;;;;;;6223047;23;20027;-95
2023/09/19 13:18:58;;;;;;;5.22;1.35;;;;;;;;;;6227383;23;20012;-95
2023/09/19 13:21:28;;;;;;;3.75;1.65;;;;;;;;;;6227303;23;20016;-95
2023/09/19 13:23:59;;;;;;;5.68;1.60;;;;;;;;;;6224269;23;20017;-94
2023/09/19 13:26:28;;;;;;;5.78;1.20;;;;;;;;;;6255656;23;20016;-96
2023/09/19 13:28:55;;;;;;;4.97;1.30;;;;;;;;;;6258084;23;20101;-96
2023/09/19 13:31:21;;;;;;;4.55;1.10;;;;;;;;;;6256242;23;20016;-95
2023/09/19 13:33:48;;;;;;;4.25;0.93;;;;;;;;;;6247955;23;20018;-93
2023/09/19 13:36:14;;;;;;;4.25;1.17;;;;;;;;;;6254528;23;20012;-96
2023/09/19 13:38:43;;;;;;;2.88;0.93;;;;;;;;;;6252411;23;20012;-94
2023/09/19 13:41:13;;;;;;;1.63;0.73;;;;;;;;;;6223186;23;20020;-96
2023/09/19 13:43:39;;;;;;;3.38;1.02;;;;;;;;;;6227082;23;20013;-93
2023/09/19 13:46:12;;;;;;;4.15;1.30;;;;;;;;;;6247489;23;20027;-92
2023/09/19 13:48:38;;;;;;;3.58;1.00;;;;;;;;;;6249125;23;20368;-93
2023/09/19 13:51:04;;;;;;;7.57;1.23;;;;;;;;;;6250726;23;20138;-96
2023/09/19 13:53:30;;;;;;;2.05;1.00;;;;;;;;;;6250215;23;20011;-94
2023/09/19 13:55:56;;;;;;;3.25;1.00;;;;;;;;;;6251694;23;20020;-93
2023/09/19 13:58:22;;;;;;;4.72;1.10;;;;;;;;;;6224560;23;20050;-94
2023/09/19 14:00:49;;;;;;;1.60;0.90;;;;;;;;;;6248974;23;20014;-93
2023/09/19 14:03:15;;;;;;;1.98;1.60;;;;;;;;;;6222866;23;20139;-94
2023/09/19 14:05:42;;;;;;;4.65;1.00;;;;;;;;;;6253076;23;20035;-95
2023/09/19 14:08:08;;;;;;;5.57;0.80;;;;;;;;;;6227753;23;20022;-94
2023/09/19 14:10:34;;;;;;;2.60;0.90;;;;;;;;;;6255288;23;20315;-92
2023/09/19 14:13:00;;;;;;;3.47;1.00;;;;;;;;;;6228203;23;20012;-93
2023/09/19 14:15:30;;;;;;;3.30;1.05;;;;;;;;;;6223946;23;20027;-94
2023/09/19 14:17:57;;;;;;;4.38;1.00;;;;;;;;;;6224927;23;20012;-91
2023/09/19 14:20:23;;;;;;;4.00;0.85;;;;;;;;;;6252483;23;20338;-93
2023/09/19 14:22:49;;;;;;;4.18;0.98;;;;;;;;;;6252383;23;20044;-92
2023/09/19 14:25:15;;;;;;;2.65;1.13;;;;;;;;;;6249037;23;20062;-93
2023/09/19 14:27:41;;;;;;;3.10;1.13;;;;;;;;;;6252269;23;20117;-93
2023/09/19 14:30:09;;;;;;;4.30;0.90;;;;;;;;;;6245418;23;20020;-93
2023/09/19 14:32:35;;;;;;;2.08;0.70;;;;;;;;;;6250255;23;20036;-96
2023/09/19 14:35:02;;;;;;;2.30;0.55;;;;;;;;;;6249422;23;20048;-92
2023/09/19 14:37:28;;;;;;;3.97;1.02;;;;;;;;;;6248236;23;20051;-94
2023/09/19 14:39:54;;;;;;;2.95;0.68;;;;;;;;;;6250368;23;20072;-93
2023/09/19 14:42:20;;;;;;;2.15;0.90;;;;;;;;;;6251422;23;20012;-93
2023/09/19 14:44:48;;;;;;;2.72;0.70;;;;;;;;;;6221463;23;20043;-94
2023/09/19 14:47:15;;;;;;;4.20;1.13;;;;;;;;;;6226938;23;20032;-95
2023/09/19 14:49:41;;;;;;;1.35;0.73;;;;;;;;;;6253881;23;20012;-94
2023/09/19 14:52:08;;;;;;;2.53;1.15;;;;;;;;;;6251261;23;20097;-95
2023/09/19 14:54:34;;;;;;;4.65;0.77;;;;;;;;;;6253068;23;20013;-95
2023/09/19 14:57:04;;;;;;;2.55;0.93;;;;;;;;;;6251218;23;20024;-92
2023/09/19 14:59:36;;;;;;;2.97;0.95;;;;;;;;;;6223269;23;20016;-95
2023/09/19 15:02:03;;;;;;;1.08;0.57;;;;;;;;;;6223666;23;20020;-91
2023/09/19 15:04:29;;;;;;;1.77;0.90;;;;;;;;;;6249189;23;20023;-94
2023/09/19 15:06:55;;;;;;;4.43;0.60;;;;;;;;;;6250498;22;20065;-95
2023/09/19 15:09:24;;;;;;;2.33;0.70;;;;;;;;;;6220786;23;20030;-93
2023/09/19 15:11:50;;;;;;;1.95;1.15;;;;;;;;;;6245872;23;20035;-91
2023/09/19 15:14:16;;;;;;;2.80;0.95;;;;;;;;;;6245506;23;20330;-95
2023/09/19 15:16:43;;;;;;;3.50;0.60;;;;;;;;;;6247918;23;20016;-92
2023/09/19 15:19:10;;;;;;;1.65;0.70;;;;;;;;;;6245013;23;20453;-94
2023/09/19 15:21:37;;;;;;;3.75;1.00;;;;;;;;;;6219747;23;20027;-94
2023/09/19 15:24:03;;;;;;;1.48;0.55;;;;;;;;;;6217502;23;20016;-93
2023/09/19 15:26:30;;;;;;;3.20;0.80;;;;;;;;;;6216367;23;20052;-88
2023/09/19 15:28:56;;;;;;;2.25;0.70;;;;;;;;;;6246615;23;20012;-96
2023/09/19 15:31:23;;;;;;;3.72;0.63;;;;;;;;;;6247279;23;20020;-91
2023/09/19 15:33:49;;;;;;;1.35;0.70;;;;;;;;;;6242480;23;20012;-92
2023/09/19 15:36:16;;;;;;;3.10;0.75;;;;;;;;;;6217116;23;20066;-94
2023/09/19 15:39:01;;;;;;;3.08;0.50;;;;;;;;;;6218184;23;20016;-93
2023/09/19 15:41:29;;;;;;;1.80;0.68;;;;;;;;;;6216621;23;20062;-93
2023/09/19 15:43:56;;;;;;;5.30;0.98;;;;;;;;;;6247175;23;20319;-95
2023/09/19 15:46:23;;;;;;;2.47;1.00;;;;;;;;;;6220171;23;20027;-91
2023/09/19 15:48:50;;;;;;;2.17;0.50;;;;;;;;;;6216579;23;20083;-94
2023/09/19 15:51:16;;;;;;;2.35;1.23;;;;;;;;;;6214172;23;20023;-92
2023/09/19 15:53:42;;;;;;;3.08;0.70;;;;;;;;;;6241973;23;20012;-88
2023/09/19 15:56:10;;;;;;;1.35;0.60;;;;;;;;;;6240361;23;20016;-86
2023/09/19 15:58:38;;;;;;;3.58;0.90;;;;;;;;;;6243035;23;20012;-85
2023/09/19 16:01:11;;;;;;;2.15;0.82;;;;;;;;;;6241488;23;20050;-87
2023/09/19 16:03:44;;;;;;;2.67;0.90;;;;;;;;;;6241709;23;20012;-90